Impacts TAF Board
For situational awareness. Not to be used for flight planning purposes.
IDs:

KIAD - Washington/Dulles In, VA, US

Issued at 0315 UTC 10 Dec 2022
Updated at 0317 UTC 10 Dec 2022
Potential Impact None Slight Moderate High
Time<<11/04Z 11/05Z 11/06Z 11/07Z 11/08Z 11/09Z 11/10Z 11/11Z 11/12Z 11/13Z 11/14Z 11/15Z 11/16Z
Type PRVL PRVL
VIS >6 >6
CIG 25 25
Cover OVC OVC
FltCat MVFR MVFR
WX -- --
WDir 100 100
WSpd 3 3
WGst -- --
WSHgt -- --
WSDir -- --
WSSpd -- --
Raw TAF
KIAD 100315Z 1003/1106 00000KT P6SM SKC
  FM101800 06004KT P6SM SCT045
  FM101900 07003KT P6SM BKN060
  FM110300 10003KT P6SM OVC025


METAR Board
Radar Display
Forecast Discussion
For situational awareness. Not to be used for flight planning purposes.